Ravenna, Michigan
Current Conditions -  °F | °C
As of 12:16 PM on Sunday 23 Nov 2014 (Local Time) from KMKG Reporting Station
Light Rain Light Rain  
Wind Chill: 51°   Ceiling: 2700
Heat Index: 51°   Visibility: 7mi
Dew Point: 47°   Wind: 15mph
Humidity: 86%   Direction: 160°SSE
Pressure: 29.71"   Gusts: NA
Location:  43.19°N, 85.94°W
Report Text: KMKG 231716Z 16013KT 7SM -RA FEW011 OVC027 11/08 A2971 RMK AO2 P0002 T01060083
Loading
Personal Weather Stations






























Interactive Weather Map New forecast layout! Learn more

10-Day Weather Forecast

Advertisements
Track Severe Weather on mobile